Time;durP1;ratioP1;P1;durP2;ratioP2;P2;SDS_P1;SDS_P2;PMS_P1;PMS_P2;Temp;Humidity;BMP_temperature;BMP_pressure;BME280_temperature;BME280_humidity;BME280_pressure;Samples;Min_cycle;Max_cycle;Signal;HPM_P1;HPM_P2
2021/09/18 00:00:23;;;;;;;10.88;7.78;;;12.80;99.90;;;11.37;99.25;101236.47;2567814;30;138224;-44
2021/09/18 00:02:52;;;;;;;9.20;7.20;;;12.80;99.90;;;11.35;99.79;101226.84;2568424;30;138275;-44
2021/09/18 00:05:20;;;;;;;9.40;7.43;;;12.80;99.90;;;11.31;99.45;101229.13;2567962;30;138213;-44
2021/09/18 00:07:48;;;;;;;10.35;7.28;;;12.80;99.90;;;11.31;99.45;101231.03;2568427;30;137507;-44
2021/09/18 00:10:15;;;;;;;9.65;6.60;;;12.80;99.90;;;11.25;99.61;101221.78;2568226;30;137693;-43
2021/09/18 00:12:43;;;;;;;8.98;6.50;;;12.80;99.90;;;11.27;99.77;101235.19;2569034;30;137376;-44
2021/09/18 00:15:13;;;;;;;8.18;6.35;;;12.80;99.90;;;11.24;99.62;101233.75;2566506;30;139481;-44
2021/09/18 00:17:42;;;;;;;8.15;6.07;;;12.70;99.90;;;11.21;99.71;101236.88;2568464;30;136715;-44
2021/09/18 00:20:10;;;;;;;9.18;6.47;;;12.70;99.90;;;11.20;99.59;101235.22;2568453;30;138440;-45
2021/09/18 00:22:38;;;;;;;8.13;6.32;;;12.70;99.90;;;11.13;99.34;101226.13;2565410;30;137384;-43
2021/09/18 00:25:07;;;;;;;9.07;6.38;;;12.70;99.90;;;11.18;99.39;101240.03;2568183;30;138385;-43
2021/09/18 00:27:37;;;;;;;9.55;6.95;;;12.70;99.90;;;11.14;99.32;101238.75;2568046;30;137467;-46
2021/09/18 00:30:05;;;;;;;9.23;6.15;;;12.70;99.90;;;11.12;99.68;101238.09;2567984;30;138360;-44
2021/09/18 00:32:33;;;;;;;8.43;6.30;;;12.60;99.90;;;11.12;99.60;101232.66;2564562;30;137317;-43
2021/09/18 00:35:00;;;;;;;;;;;12.60;99.90;;;11.08;99.57;101233.06;2567711;30;137299;-44
2021/09/18 00:37:28;;;;;;;8.50;6.38;;;12.60;99.90;;;11.05;99.44;101228.00;2567777;30;137358;-43
2021/09/18 00:39:56;;;;;;;9.68;6.70;;;12.60;99.90;;;11.02;99.15;101231.16;2565885;30;137794;-44
2021/09/18 00:42:23;;;;;;;10.00;6.75;;;12.50;99.90;;;11.03;99.00;101234.75;2566238;30;137682;-44
2021/09/18 00:44:52;;;;;;;9.52;6.70;;;12.50;99.90;;;10.99;98.97;101233.44;2566552;30;137362;-43
2021/09/18 00:47:23;;;;;;;10.07;7.40;;;12.50;99.90;;;10.97;99.56;101230.94;2567500;30;137745;-43
2021/09/18 00:49:51;;;;;;;13.07;6.88;;;12.50;99.90;;;10.94;99.30;101225.91;2568665;30;139093;-44
2021/09/18 00:52:21;;;;;;;;;;;12.50;99.90;;;10.91;99.31;101226.31;2567419;30;137490;-44
2021/09/18 00:54:49;;;;;;;10.57;7.13;;;12.40;99.90;;;10.88;99.71;101222.09;2566255;30;139820;-43
2021/09/18 00:57:18;;;;;;;10.88;7.25;;;12.40;99.90;;;10.89;99.44;101228.41;2567084;30;137543;-44
2021/09/18 00:59:49;;;;;;;10.45;7.25;;;12.40;99.90;;;10.90;99.27;101224.63;2565194;30;138525;-45
2021/09/18 01:02:17;;;;;;;9.82;7.68;;;12.40;99.90;;;10.86;99.31;101220.59;2568369;30;137378;-44
2021/09/18 01:04:45;;;;;;;9.27;6.78;;;12.40;99.90;;;10.84;99.31;101218.09;2566917;30;138951;-45
2021/09/18 01:07:12;;;;;;;12.77;6.82;;;12.40;99.90;;;10.81;99.49;101218.50;2566930;30;137396;-44
2021/09/18 01:09:40;;;;;;;;;;;12.30;99.90;;;10.77;99.61;101215.31;2567489;30;138410;-44
2021/09/18 01:12:09;;;;;;;10.32;7.03;;;12.30;99.90;;;10.72;99.70;101206.91;2575391;30;137510;-49
2021/09/18 01:14:45;;;;;;;10.98;7.20;;;12.30;99.90;;;10.70;99.71;101214.47;2569604;30;138562;-47
2021/09/18 01:17:14;;;;;;;8.98;6.55;;;12.30;99.90;;;10.65;99.76;101214.25;2569092;30;137608;-45
2021/09/18 01:19:43;;;;;;;9.68;7.43;;;12.20;99.90;;;10.67;99.58;101224.94;2568687;30;138214;-45
2021/09/18 01:22:11;;;;;;;8.73;6.60;;;12.20;99.90;;;10.65;99.69;101227.88;2568883;30;138389;-45
2021/09/18 01:24:39;;;;;;;9.65;7.00;;;12.20;99.90;;;10.63;99.53;101224.53;2568999;30;138520;-45
2021/09/18 01:27:07;;;;;;;10.35;7.43;;;12.20;99.90;;;10.60;99.69;101233.09;2569256;30;137987;-45
2021/09/18 01:29:34;;;;;;;12.48;7.20;;;12.10;99.90;;;10.57;99.57;101234.34;2566532;30;140522;-44
2021/09/18 01:32:03;;;;;;;13.38;7.43;;;12.10;99.90;;;10.56;99.55;101231.81;2569929;30;137760;-46
2021/09/18 01:34:31;;;;;;;10.23;6.90;;;12.10;99.90;;;10.53;99.74;101234.94;2567545;30;137755;-45
2021/09/18 01:36:58;;;;;;;10.18;7.53;;;12.10;99.90;;;10.52;99.86;101227.81;2568692;30;138279;-45
2021/09/18 01:39:27;;;;;;;9.38;7.00;;;12.10;99.90;;;10.53;99.73;101237.69;2566869;30;136817;-45
2021/09/18 01:41:55;;;;;;;11.00;8.25;;;12.00;99.90;;;10.50;99.95;101237.03;2568153;30;136684;-48
2021/09/18 01:44:23;;;;;;;14.45;8.13;;;12.10;99.90;;;10.49;99.83;101234.53;2569101;30;137361;-45
2021/09/18 01:46:50;;;;;;;12.23;9.10;;;12.00;99.90;;;10.48;99.88;101230.13;2570847;30;139069;-47
2021/09/18 01:49:19;;;;;;;11.55;8.43;;;12.00;99.90;;;10.46;100.00;101237.63;2568953;30;139292;-45
2021/09/18 01:54:41;;;;;;;12.38;8.20;;;12.00;99.90;;;10.43;99.80;101232.59;2565632;30;137589;-45
2021/09/18 01:57:09;;;;;;;13.02;8.18;;;12.00;99.90;;;10.40;99.78;101236.56;2570474;30;136830;-47
2021/09/18 01:59:37;;;;;;;10.18;7.40;;;12.00;99.90;;;10.40;99.99;101235.69;2569940;30;137343;-48
2021/09/18 02:02:04;;;;;;;11.90;8.35;;;11.90;99.90;;;10.39;99.91;101231.28;2572385;30;138127;-45
2021/09/18 02:04:32;;;;;;;12.10;8.73;;;11.90;99.90;;;10.35;99.85;101222.69;2570621;30;137453;-45
2021/09/18 02:07:00;;;;;;;11.82;8.25;;;12.00;99.90;;;10.36;99.86;101236.09;2570392;30;138530;-45
2021/09/18 02:09:27;;;;;;;10.95;8.25;;;11.90;99.90;;;10.35;99.99;101230.88;2570730;30;138512;-46
2021/09/18 02:11:55;;;;;;;12.40;9.23;;;11.90;99.90;;;10.32;99.85;101231.22;2569187;30;136980;-45
2021/09/18 02:14:22;;;;;;;15.35;8.82;;;11.90;99.90;;;10.32;99.74;101231.22;2567350;30;138594;-46
2021/09/18 02:16:50;;;;;;;13.40;9.48;;;11.90;99.90;;;10.31;99.59;101226.81;2572101;30;137141;-48
2021/09/18 02:19:18;;;;;;;;;;;11.80;99.90;;;10.31;99.95;101232.28;2570278;30;137221;-47
2021/09/18 02:21:45;;;;;;;13.43;9.20;;;11.80;99.90;;;10.30;100.00;101222.41;2568405;30;138505;-45
2021/09/18 02:24:16;;;;;;;12.82;9.40;;;11.80;99.90;;;10.28;100.00;101230.81;2568942;30;138965;-53
2021/09/18 02:26:43;;;;;;;13.80;10.05;;;11.80;99.90;;;10.25;100.00;101214.84;2568813;30;137654;-46
2021/09/18 02:29:11;;;;;;;21.42;10.88;;;11.80;99.90;;;10.22;100.00;101227.00;2572305;30;137295;-44
2021/09/18 02:31:39;;;;;;;15.50;10.60;;;11.80;99.90;;;10.20;100.00;101226.34;2568644;30;137640;-46
2021/09/18 02:34:06;;;;;;;18.67;11.60;;;11.80;99.90;;;10.17;100.00;101225.91;2568082;30;138402;-44
2021/09/18 02:36:34;;;;;;;14.10;10.20;;;11.70;99.90;;;10.14;100.00;101229.88;2569427;30;137557;-45
2021/09/18 02:39:02;;;;;;;;;;;11.70;99.90;;;10.12;100.00;101218.34;2568792;30;139594;-45
2021/09/18 02:41:30;;;;;;;18.38;10.90;;;11.70;99.90;;;10.11;100.00;101222.13;2569271;30;137054;-45
2021/09/18 02:43:57;;;;;;;17.45;11.98;;;11.70;99.90;;;10.07;100.00;101216.22;2569743;30;138388;-45
2021/09/18 02:46:25;;;;;;;16.52;11.05;;;11.60;99.90;;;10.08;100.00;101212.44;2568671;30;138436;-44
2021/09/18 02:48:52;;;;;;;17.48;11.90;;;11.60;99.90;;;10.08;100.00;101217.88;2568546;30;137796;-45
2021/09/18 02:51:23;;;;;;;18.38;11.88;;;11.60;99.90;;;10.08;100.00;101215.16;2570685;30;137654;-44
2021/09/18 02:53:51;;;;;;;17.40;11.20;;;11.60;99.90;;;10.05;100.00;101217.44;2570039;30;138480;-45
2021/09/18 02:56:19;;;;;;;18.73;11.95;;;11.60;99.90;;;10.02;100.00;101220.56;2569642;30;137773;-45
2021/09/18 02:58:47;;;;;;;16.42;10.65;;;11.60;99.90;;;9.98;100.00;101222.88;2569534;30;137307;-45
2021/09/18 03:01:15;;;;;;;16.95;11.43;;;11.50;99.90;;;9.93;100.00;101220.72;2571275;30;137138;-45
2021/09/18 03:03:43;;;;;;;19.73;12.32;;;11.50;99.90;;;9.92;100.00;101210.88;2570171;30;138293;-45
2021/09/18 03:06:10;;;;;;;17.45;11.85;;;11.50;99.90;;;9.89;100.00;101205.81;2570213;30;137350;-47
2021/09/18 03:08:38;;;;;;;20.10;12.45;;;11.50;99.90;;;9.88;100.00;101209.59;2568288;30;137186;-45
2021/09/18 03:11:06;;;;;;;;;;;11.40;99.90;;;9.87;100.00;101207.03;2569934;30;137041;-45
2021/09/18 03:13:35;;;;;;;19.63;12.68;;;11.40;99.90;;;9.85;100.00;101209.13;2568657;30;138442;-44
2021/09/18 03:16:07;;;;;;;18.80;12.43;;;11.40;99.90;;;9.82;100.00;101201.34;2566209;30;136861;-45
2021/09/18 03:18:35;;;;;;;20.48;12.75;;;11.40;99.90;;;9.71;100.00;101189.09;2569849;30;138277;-46
2021/09/18 03:21:03;;;;;;;18.25;12.63;;;11.40;99.90;;;9.76;100.00;101203.84;2571226;30;137548;-47
2021/09/18 03:23:30;;;;;;;18.70;12.57;;;11.30;99.90;;;9.75;100.00;101201.28;2569510;30;138222;-45
2021/09/18 03:25:58;;;;;;;15.68;11.80;;;11.30;99.90;;;9.72;100.00;101199.81;2569048;30;137440;-47
2021/09/18 03:28:26;;;;;;;;;;;11.30;99.90;;;9.69;100.00;101197.50;2567723;30;139048;-46
2021/09/18 03:30:54;;;;;;;18.55;12.60;;;11.30;99.90;;;9.69;100.00;101196.63;2571857;30;136968;-44
2021/09/18 03:33:21;;;;;;;17.80;12.52;;;11.30;99.90;;;9.67;100.00;101196.00;2569164;30;138135;-44
2021/09/18 03:35:50;;;;;;;19.92;13.68;;;11.20;99.90;;;9.64;100.00;101198.06;2571382;30;138408;-45
2021/09/18 03:38:18;;;;;;;20.23;13.70;;;11.20;99.90;;;9.63;100.00;101199.13;2566526;30;137924;-46
2021/09/18 03:40:46;;;;;;;18.42;13.07;;;11.20;99.90;;;9.61;100.00;101203.94;2570824;30;137815;-50
2021/09/18 03:43:13;;;;;;;19.15;12.48;;;11.20;99.90;;;9.62;100.00;101196.56;2568152;30;139075;-45
2021/09/18 03:45:41;;;;;;;17.73;12.57;;;11.20;99.90;;;9.61;100.00;101201.19;2567471;30;138068;-45
2021/09/18 03:48:09;;;;;;;20.55;13.02;;;11.20;99.90;;;9.61;100.00;101197.63;2569041;30;137576;-45
2021/09/18 03:50:37;;;;;;;18.52;12.32;;;11.20;99.90;;;9.59;100.00;101200.56;2568846;30;137052;-45
2021/09/18 03:53:04;;;;;;;19.27;12.63;;;11.20;99.90;;;9.57;100.00;101205.38;2569147;30;137040;-45
2021/09/18 03:55:32;;;;;;;;;;;11.10;99.90;;;9.54;100.00;101200.28;2568778;30;136868;-44
2021/09/18 03:58:00;;;;;;;17.15;11.80;;;11.10;99.90;;;9.52;100.00;101196.91;2570193;30;136719;-45
2021/09/18 04:00:28;;;;;;;18.92;11.65;;;11.10;99.90;;;9.50;100.00;101199.00;2568352;30;136945;-44
2021/09/18 04:02:55;;;;;;;17.10;11.77;;;11.10;99.90;;;9.48;100.00;101207.38;2569299;30;137240;-47
2021/09/18 04:05:23;;;;;;;18.35;12.02;;;11.10;99.90;;;9.45;100.00;101198.75;2569361;30;138389;-46
2021/09/18 04:07:51;;;;;;;16.92;11.68;;;11.00;99.90;;;9.32;100.00;101183.97;2568323;30;137888;-43
2021/09/18 04:10:18;;;;;;;16.63;11.85;;;11.00;99.90;;;9.39;100.00;101204.97;2570021;30;138362;-45
2021/09/18 04:12:46;;;;;;;17.38;12.15;;;11.00;99.90;;;9.37;100.00;101207.06;2569465;30;137491;-45
2021/09/18 04:15:13;;;;;;;18.50;12.48;;;11.00;99.90;;;9.37;100.00;101207.06;2570311;30;137593;-44
2021/09/18 04:17:44;;;;;;;21.02;12.57;;;11.00;99.90;;;9.35;100.00;101213.53;2565570;30;139466;-45
2021/09/18 04:20:12;;;;;;;18.77;12.18;;;10.90;99.90;;;9.33;100.00;101214.75;2569406;30;137476;-45
2021/09/18 04:22:39;;;;;;;17.90;12.38;;;10.90;99.90;;;9.31;100.00;101212.25;2567921;30;137285;-44
2021/09/18 04:25:08;;;;;;;22.63;15.02;;;10.90;99.90;;;9.26;100.00;101206.53;2568225;30;138164;-44
2021/09/18 04:27:36;;;;;;;20.23;13.90;;;10.90;99.90;;;9.29;100.00;101219.78;2568288;30;138188;-45
2021/09/18 04:30:06;;;;;;;21.13;13.77;;;10.90;99.90;;;9.29;100.00;101224.38;2570415;30;137162;-45
2021/09/18 04:32:34;;;;;;;22.10;13.55;;;10.80;99.90;;;9.31;100.00;101228.59;2567955;30;137364;-46
2021/09/18 04:35:02;;;;;;;19.65;12.80;;;10.90;99.90;;;9.32;100.00;101223.97;2568631;30;137435;-46
2021/09/18 04:37:30;;;;;;;;;;;10.90;99.90;;;9.32;100.00;101222.09;2566069;30;137369;-44
2021/09/18 04:39:57;;;;;;;20.33;13.52;;;10.90;99.90;;;9.33;100.00;101226.50;2568407;30;136904;-44
2021/09/18 04:42:25;;;;;;;18.63;12.93;;;10.90;99.90;;;9.33;100.00;101226.50;2568008;30;138263;-46
2021/09/18 04:44:53;;;;;;;21.48;13.70;;;10.90;99.90;;;9.33;100.00;101225.66;2568532;30;136688;-47
2021/09/18 04:47:20;;;;;;;24.50;15.77;;;10.90;99.90;;;9.33;100.00;101234.69;2568195;30;138220;-45
2021/09/18 04:49:48;;;;;;;23.77;15.00;;;10.90;99.90;;;9.35;100.00;101239.91;2568383;30;137863;-46
2021/09/18 04:52:16;;;;;;;31.35;17.88;;;10.90;99.90;;;9.37;100.00;101235.13;2568506;30;138445;-47
2021/09/18 04:54:43;;;;;;;23.33;15.23;;;10.90;99.90;;;9.37;100.00;101243.28;2570924;30;137406;-44
2021/09/18 04:57:11;;;;;;;28.92;17.58;;;10.90;99.90;;;9.40;100.00;101239.34;2570366;30;138325;-46
2021/09/18 04:59:38;;;;;;;28.45;16.52;;;11.00;99.90;;;9.37;100.00;101248.72;2569566;30;137897;-54
2021/09/18 05:02:06;;;;;;;24.92;15.60;;;10.90;99.90;;;9.35;100.00;101243.50;2569507;30;137385;-47
2021/09/18 05:04:34;;;;;;;26.17;15.43;;;10.90;99.90;;;9.33;100.00;101244.72;2569403;30;138627;-49
2021/09/18 05:07:02;;;;;;;28.00;15.93;;;10.90;99.90;;;9.33;100.00;101245.56;2567470;30;137705;-45
2021/09/18 05:09:29;;;;;;;28.17;17.10;;;10.90;99.90;;;9.32;100.00;101254.78;2569395;30;137635;-43
2021/09/18 05:11:57;;;;;;;25.10;16.02;;;10.90;99.90;;;9.30;100.00;101254.13;2568383;30;138626;-48
2021/09/18 05:14:25;;;;;;;23.92;15.68;;;10.90;99.90;;;9.30;100.00;101251.41;2569986;30;137023;-45
2021/09/18 05:16:52;;;;;;;24.95;15.68;;;10.90;99.90;;;9.31;100.00;101253.09;2569516;30;138306;-46
2021/09/18 05:19:20;;;;;;;24.77;15.63;;;10.90;99.90;;;9.29;100.00;101254.31;2569539;30;137027;-44
2021/09/18 05:21:47;;;;;;;26.52;15.50;;;10.80;99.90;;;9.28;100.00;101260.78;2571034;30;138315;-44
2021/09/18 05:24:15;;;;;;;21.90;14.52;;;10.90;99.90;;;9.26;100.00;101269.16;2570254;30;137602;-47
2021/09/18 05:26:43;;;;;;;23.85;15.35;;;10.80;99.90;;;9.28;100.00;101267.09;2570078;30;137307;-48
2021/09/18 05:29:10;;;;;;;23.98;15.40;;;10.80;99.90;;;9.29;100.00;101267.94;2569772;30;136861;-44
2021/09/18 05:31:38;;;;;;;22.65;15.07;;;10.80;99.90;;;9.31;100.00;101269.44;2570057;30;137219;-44
2021/09/18 05:34:06;;;;;;;24.30;15.43;;;10.90;99.90;;;9.33;100.00;101270.09;2570747;30;136903;-46
2021/09/18 05:36:33;;;;;;;23.27;16.13;;;10.90;99.90;;;9.34;100.00;101271.75;2570824;30;137324;-47
2021/09/18 05:39:02;;;;;;;22.95;15.40;;;10.90;99.90;;;9.37;100.00;101267.78;2568323;30;137002;-44
2021/09/18 05:41:29;;;;;;;22.83;15.63;;;10.90;99.90;;;9.41;100.00;101270.97;2570620;30;138254;-46
2021/09/18 05:43:57;;;;;;;23.20;15.45;;;10.90;99.90;;;9.43;100.00;101268.91;2569238;30;138319;-43
2021/09/18 05:46:25;;;;;;;21.90;14.88;;;11.00;99.90;;;9.49;100.00;101273.56;2570246;30;138201;-45
2021/09/18 05:48:53;;;;;;;23.17;16.10;;;11.00;99.90;;;9.52;100.00;101273.19;2569465;30;137024;-42
2021/09/18 05:51:21;;;;;;;23.55;15.45;;;11.00;99.90;;;9.56;100.00;101265.47;2568468;30;139063;-46
2021/09/18 05:53:48;;;;;;;;;;;11.00;99.90;;;9.59;100.00;101274.09;2570053;30;138145;-45
2021/09/18 05:56:16;;;;;;;21.77;14.50;;;11.10;99.90;;;9.64;100.00;101268.91;2568888;30;136986;-43
2021/09/18 05:59:03;;;;;;;23.05;15.50;;;11.10;99.90;;;9.72;100.00;101272.53;2570905;30;137804;-45
2021/09/18 06:01:31;;;;;;;21.73;14.73;;;11.20;99.90;;;9.77;100.00;101270.06;2569180;30;137140;-47
2021/09/18 06:03:59;;;;;;;22.00;14.32;;;11.30;99.90;;;9.84;100.00;101276.44;2571858;30;137083;-45
2021/09/18 06:06:27;;;;;;;21.65;14.30;;;11.30;99.90;;;9.92;100.00;101275.41;2568635;30;137530;-44
2021/09/18 06:08:54;;;;;;;;;;;11.40;99.90;;;9.99;100.00;101276.34;2569740;30;137530;-45
2021/09/18 06:11:22;;;;;;;19.58;13.85;;;11.40;99.90;;;10.09;100.00;101286.91;2568175;30;138560;-46
2021/09/18 06:13:50;;;;;;;;;;;11.50;99.90;;;10.18;100.00;101282.13;2567135;30;136751;-45
2021/09/18 06:16:18;;;;;;;22.40;14.13;;;11.60;99.90;;;10.29;100.00;101280.72;2569445;30;138916;-45
2021/09/18 06:18:45;;;;;;;24.45;16.25;;;11.70;99.90;;;10.39;100.00;101278.50;2569908;30;136816;-45
2021/09/18 06:21:13;;;;;;;24.15;15.25;;;11.80;99.90;;;10.51;100.00;101287.00;2569682;30;138359;-44
2021/09/18 06:23:41;;;;;;;23.58;15.65;;;11.90;99.90;;;10.62;100.00;101282.88;2569885;30;136841;-46
2021/09/18 06:26:09;;;;;;;22.65;16.05;;;12.00;99.90;;;10.74;100.00;101286.69;2570229;30;139003;-44
2021/09/18 06:28:37;;;;;;;24.75;15.45;;;12.10;99.90;;;10.88;100.00;101284.88;2568606;30;136980;-46
2021/09/18 06:31:04;;;;;;;;;;;12.20;99.90;;;11.01;100.00;101281.34;2568973;30;138501;-44
2021/09/18 06:33:32;;;;;;;26.67;17.27;;;12.30;99.90;;;11.15;100.00;101289.59;2569934;30;136894;-46
2021/09/18 06:36:00;;;;;;;29.33;19.00;;;12.50;99.90;;;11.28;100.00;101286.06;2568665;30;137680;-47
2021/09/18 06:38:28;;;;;;;30.70;18.88;;;12.60;99.90;;;11.43;100.00;101286.72;2569131;30;137126;-45
2021/09/18 06:40:58;;;;;;;30.10;19.33;;;12.70;99.90;;;11.57;100.00;101293.06;2571695;30;138081;-43
2021/09/18 06:43:28;;;;;;;34.15;21.05;;;12.80;99.90;;;11.73;100.00;101293.72;2569109;30;137040;-46
2021/09/18 06:45:56;;;;;;;42.35;23.58;;;13.00;99.90;;;11.90;100.00;101292.25;2570573;30;136675;-45
2021/09/18 06:48:24;;;;;;;35.53;22.23;;;13.10;99.90;;;12.07;100.00;101300.91;2570701;30;137492;-46
2021/09/18 06:50:52;;;;;;;38.15;22.63;;;13.30;99.90;;;12.23;100.00;101293.31;2569591;30;138411;-45
2021/09/18 06:53:20;;;;;;;45.05;25.20;;;13.40;99.90;;;12.38;100.00;101293.09;2566492;30;137025;-45
2021/09/18 06:55:47;;;;;;;53.30;30.23;;;13.50;99.90;;;12.54;100.00;101290.97;2570110;30;138337;-45
2021/09/18 06:58:15;;;;;;;41.35;25.30;;;13.70;99.90;;;12.70;100.00;101284.19;2569266;30;137073;-47
2021/09/18 07:00:44;;;;;;;57.33;31.70;;;13.80;99.90;;;12.88;100.00;101292.53;2568577;30;138939;-45
2021/09/18 07:03:11;;;;;;;54.50;30.58;;;14.00;99.90;;;13.02;100.00;101287.84;2568493;30;136850;-47
2021/09/18 07:05:39;;;;;;;56.15;31.48;;;14.10;99.90;;;13.18;100.00;101291.13;2567495;30;136911;-44
2021/09/18 07:08:07;;;;;;;60.42;34.38;;;14.30;99.90;;;13.30;100.00;101296.75;2568031;30;137505;-45
2021/09/18 07:13:14;;;;;;;54.08;31.27;;;14.50;99.90;;;13.55;100.00;101305.09;2567851;30;137351;-42
2021/09/18 07:15:42;;;;;;;52.90;32.28;;;14.70;99.90;;;13.65;100.00;101302.69;2568415;30;137192;-45
2021/09/18 07:18:10;;;;;;;55.13;31.90;;;14.80;99.90;;;13.78;100.00;101309.97;2567373;30;137401;-44
2021/09/18 07:20:38;;;;;;;50.25;31.33;;;14.90;99.90;;;13.89;100.00;101307.56;2566550;30;138990;-42
2021/09/18 07:23:05;;;;;;;49.13;28.85;;;15.00;99.90;;;13.99;100.00;101307.06;2566828;30;136883;-44
2021/09/18 07:25:33;;;;;;;48.53;28.25;;;15.10;99.90;;;14.05;100.00;101303.44;2566993;30;138274;-44
2021/09/18 07:28:01;;;;;;;46.25;28.65;;;15.20;99.90;;;14.16;100.00;101310.09;2567273;30;136919;-45
2021/09/18 07:30:29;;;;;;;44.20;26.92;;;15.20;99.90;;;14.27;100.00;101305.78;2568279;30;137126;-48
2021/09/18 07:32:56;;;;;;;;;;;15.30;99.90;;;14.42;100.00;101306.28;2566865;30;137461;-42
2021/09/18 07:35:24;;;;;;;42.50;25.95;;;15.50;99.90;;;14.60;100.00;101304.63;2568331;30;138231;-44
2021/09/18 07:37:52;;;;;;;44.45;28.33;;;15.60;99.90;;;14.72;100.00;101307.44;2568867;30;136933;-44
2021/09/18 07:40:19;;;;;;;;;;;15.70;99.90;;;14.88;99.19;101306.03;2567179;30;137213;-44
2021/09/18 07:42:47;;;;;;;39.38;25.73;;;15.80;99.90;;;15.01;98.33;101305.03;2569173;30;136942;-46
2021/09/18 07:45:15;;;;;;;40.30;25.27;;;16.00;99.90;;;14.97;96.20;101304.63;2568027;30;137789;-44
2021/09/18 07:47:42;;;;;;;36.00;24.13;;;16.00;99.90;;;15.00;96.64;101309.66;2568199;30;136759;-44
2021/09/18 07:50:11;;;;;;;34.60;23.25;;;16.00;99.90;;;14.97;95.58;101310.13;2567851;30;138444;-44
2021/09/18 07:52:39;;;;;;;35.90;23.08;;;16.10;99.90;;;15.00;95.57;101303.34;2567886;30;136722;-44
2021/09/18 07:55:09;;;;;;;33.40;23.60;;;16.10;99.90;;;15.15;95.56;101320.25;2566232;30;139230;-45
2021/09/18 07:57:57;;;;;;;33.58;22.92;;;16.20;99.90;;;15.29;94.72;101320.09;2568858;30;137696;-44
2021/09/18 08:00:25;;;;;;;;;;;16.30;99.90;;;15.46;93.32;101318.34;2569122;30;137364;-44
2021/09/18 08:02:55;;;;;;;41.78;23.85;;;16.40;99.90;;;15.62;93.98;101316.03;2567759;30;136877;-45
2021/09/18 08:05:24;;;;;;;38.67;25.58;;;16.50;99.90;;;15.77;93.25;101312.84;2567664;30;137269;-44
2021/09/18 08:07:51;;;;;;;34.53;24.13;;;16.70;99.90;;;15.90;91.15;101323.66;2567490;30;137483;-44
2021/09/18 08:10:19;;;;;;;32.80;24.00;;;16.80;99.90;;;16.00;90.05;101308.50;2569012;30;138209;-44
2021/09/18 08:12:50;;;;;;;37.92;26.13;;;17.00;99.90;;;16.20;90.36;101311.75;2567948;30;136803;-49
2021/09/18 08:15:18;;;;;;;35.35;23.90;;;17.10;99.90;;;16.31;89.13;101315.59;2566989;30;136795;-44
2021/09/18 08:17:47;;;;;;;35.65;25.23;;;17.20;99.90;;;16.31;88.88;101317.50;2568561;30;137496;-44
2021/09/18 08:20:18;;;;;;;32.28;22.50;;;17.20;99.90;;;16.34;88.63;101322.50;2567729;30;138901;-44
2021/09/18 08:22:48;;;;;;;37.17;25.92;;;17.30;99.90;;;16.41;87.48;101314.97;2566541;30;137844;-45
2021/09/18 08:25:18;;;;;;;33.22;23.42;;;17.30;99.90;;;16.48;87.08;101323.13;2567756;30;137318;-45
2021/09/18 08:27:46;;;;;;;38.38;25.13;;;17.40;99.90;;;16.58;85.58;101322.50;2568444;30;138417;-46
2021/09/18 08:30:14;;;;;;;43.00;27.35;;;17.50;99.90;;;16.63;84.35;101315.22;2568962;30;137283;-45
2021/09/18 08:32:42;;;;;;;;;;;17.60;99.90;;;16.76;85.14;101324.28;2568014;30;138183;-44
2021/09/18 08:35:11;;;;;;;37.03;24.63;;;17.70;99.90;;;16.82;83.33;101331.56;2567521;30;138066;-43
2021/09/18 08:37:39;;;;;;;38.83;26.27;;;17.70;99.90;;;16.85;82.55;101328.34;2569222;30;137441;-43
2021/09/18 08:40:08;;;;;;;;;;;17.80;99.90;;;16.93;82.75;101327.13;2567610;30;137375;-44
2021/09/18 08:42:42;;;;;;;36.45;24.65;;;17.90;99.90;;;16.98;81.44;101338.31;2568539;30;136846;-43
2021/09/18 08:45:14;;;;;;;32.75;22.42;;;18.00;99.90;;;17.14;82.39;101335.84;2566747;30;138182;-44
2021/09/18 08:47:42;;;;;;;35.38;23.35;;;18.10;99.90;;;17.34;84.26;101338.16;2568074;30;136874;-43
2021/09/18 08:50:16;;;;;;;34.28;23.95;;;18.20;99.90;;;17.46;82.14;101338.13;2565855;30;137049;-45
2021/09/18 08:52:44;;;;;;;35.15;22.92;;;18.30;99.90;;;17.59;81.27;101329.56;2567935;30;138099;-44
2021/09/18 08:55:14;;;;;;;34.10;23.73;;;18.40;99.90;;;17.68;79.06;101332.75;2566899;30;137163;-43
2021/09/18 08:57:43;;;;;;;35.45;23.52;;;18.50;99.90;;;17.79;79.91;101333.78;2566729;30;136770;-41
2021/09/18 09:00:29;;;;;;;32.38;22.45;;;18.60;99.90;;;17.98;80.73;101335.22;2567072;30;137333;-42
2021/09/18 09:03:05;;;;;;;36.05;23.25;;;18.80;99.90;;;18.16;81.10;101326.94;2566407;30;137342;-44
2021/09/18 09:05:38;;;;;;;33.38;23.27;;;18.90;99.90;;;18.30;80.31;101333.81;2567601;30;137268;-47
2021/09/18 09:08:07;;;;;;;38.00;24.85;;;19.00;99.90;;;18.40;80.01;101322.09;2567282;30;136994;-44
2021/09/18 09:10:37;;;;;;;35.85;23.48;;;19.20;99.90;;;18.53;78.49;101324.50;2568269;30;137372;-42
2021/09/18 09:13:11;;;;;;;41.15;25.20;;;19.30;99.90;;;18.64;79.32;101331.00;2569147;30;136914;-45
2021/09/18 09:15:43;;;;;;;39.67;26.63;;;19.40;99.90;;;18.64;75.59;101330.19;2568382;30;138330;-40
2021/09/18 09:18:26;;;;;;;36.15;22.95;;;19.50;99.90;;;18.75;77.25;101336.69;2564478;38;138124;-44
2021/09/18 09:21:25;;;;;;;38.65;25.63;;;19.50;99.90;;;18.78;76.57;101331.47;2568100;30;138102;-44
2021/09/18 09:24:15;;;;;;;35.08;23.75;;;19.60;99.90;;;18.87;75.99;101337.38;2567729;30;136845;-44
2021/09/18 09:27:08;;;;;;;34.05;23.38;;;19.70;99.90;;;18.88;73.94;101329.94;2567496;30;137501;-43
2021/09/18 09:29:48;;;;;;;33.78;22.98;;;19.80;99.90;;;19.00;74.59;101333.44;2567231;30;137103;-45
2021/09/18 09:32:25;;;;;;;31.30;19.33;;;19.80;99.90;;;19.09;73.57;101342.94;2566900;30;137378;-45
2021/09/18 09:34:54;;;;;;;34.22;22.20;;;19.90;99.90;;;19.19;72.28;101346.94;2568243;30;137441;-46
2021/09/18 09:37:24;;;;;;;27.73;18.17;;;19.90;99.90;;;19.16;74.54;101337.22;2568613;30;137289;-43
2021/09/18 09:40:01;;;;;;;27.42;18.40;;;20.00;99.90;;;19.33;72.18;101350.97;2567782;30;136925;-44
2021/09/18 09:42:35;;;;;;;29.30;19.13;;;20.10;99.90;;;19.28;75.50;101342.63;2567152;30;137224;-50
2021/09/18 09:45:15;;;;;;;26.33;17.55;;;20.10;99.90;;;19.33;68.90;101341.84;2566677;30;136908;-44
2021/09/18 09:48:00;;;;;;;23.63;15.30;;;20.20;99.90;;;19.47;68.85;101343.09;2567320;30;137319;-50
2021/09/18 09:50:28;;;;;;;23.55;15.73;;;20.30;99.90;;;19.50;67.21;101342.63;2568016;30;137433;-44
2021/09/18 09:52:56;;;;;;;;;;;20.40;99.90;;;19.55;66.91;101344.56;2566821;30;138884;-45
2021/09/18 09:55:26;;;;;;;22.25;15.30;;;20.40;99.90;;;19.67;69.68;101331.44;2566708;30;137177;-44
2021/09/18 09:58:07;;;;;;;23.52;15.05;;;20.50;99.90;;;19.74;66.97;101336.72;2565582;30;138355;-44
2021/09/18 10:00:50;;;;;;;19.52;13.43;;;20.50;99.90;;;19.74;68.95;101335.91;2568438;30;137603;-45
2021/09/18 10:03:24;;;;;;;26.02;16.83;;;20.60;99.90;;;19.76;68.10;101336.50;2568213;30;138210;-46
2021/09/18 10:05:54;;;;;;;25.55;16.48;;;20.60;99.90;;;19.86;67.51;101332.97;2566476;30;137695;-45
2021/09/18 10:08:26;;;;;;;23.60;15.82;;;20.60;99.90;;;20.05;70.38;101336.22;2566733;30;138189;-49
2021/09/18 10:10:54;;;;;;;15.35;10.68;;;20.80;99.90;;;19.97;67.92;101318.16;2568354;30;138272;-43